Providence, Rhode Island
Traffic Map
Current Weather Conditions
Providence, Rhode Island
Overcast
Overcast
80°
Feels Like: 82°
Wind Chill: 80° Ceiling: 30000
Heat Index: 82° Visibility: 10mi
Dew Point: 67° Wind: 17mph
Humidity: 64% Direction: 140° (SE)
Pressure: 30.01in Gusts: 0mph
Raw Report DataKPVD 011651Z 14015KT 10SM FEW041 SCT070 SCT240 OVC300 27/19 A3001 RMK AO2 SLP161 T02670194
Traffic Incident Summary
Active as of:
Severity:
Category:
InformationThere was an issue retrieving the traffic information for this location. Please try a different location or try again shortly.
Advertisements
Track Severe Weather on mobile